Terminal Aerodrome Forecast
Issued by NWS

Home | Current Version | Previous Version | Text Only | Print | Product List | Glossary On
Versions: 1 2 3 4 5 6 7 8 9 10 11 12 13 14
000
FTUS42 KMLB 270535
TAFFPR
TAF
KFPR 270535Z 2706/2806 09008KT P6SM SCT025 SCT250
     FM271500 09014G20KT P6SM SCT040 SCT250
     FM280200 08010KT P6SM SCT030 SCT250=

USA.gov is the U.S. government's official web portal to all federal, state and local government web resources and services.